createdAt,value
2023-02-06T00:01:52.642Z,98.56
2023-02-06T00:04:21.903Z,98.57
2023-02-06T00:06:51.157Z,98.55
2023-02-06T00:09:20.359Z,98.56
2023-02-06T00:11:49.623Z,98.60
2023-02-06T00:14:18.865Z,98.67
2023-02-06T00:16:48.333Z,98.65
2023-02-06T00:19:17.551Z,98.55
2023-02-06T00:21:47.179Z,98.53
2023-02-06T00:24:16.718Z,98.53
2023-02-06T00:26:46.205Z,98.54
2023-02-06T00:29:15.437Z,98.49
2023-02-06T00:31:44.744Z,98.43
2023-02-06T00:34:14.836Z,98.38
2023-02-06T00:36:44.251Z,98.40
2023-02-06T00:39:13.652Z,98.34
2023-02-06T00:41:42.968Z,98.33
2023-02-06T00:44:12.924Z,98.23
2023-02-06T00:46:42.524Z,98.01
2023-02-06T00:49:11.738Z,98.06
2023-02-06T00:51:41.393Z,98.06
2023-02-06T00:54:11.087Z,97.97
2023-02-06T00:56:40.476Z,97.90
2023-02-06T00:59:09.767Z,97.80
2023-02-06T01:01:40.749Z,97.77
2023-02-06T01:04:10.016Z,97.82
2023-02-06T01:06:39.801Z,97.86
2023-02-06T01:09:09.067Z,97.84
2023-02-06T01:11:38.540Z,97.80
2023-02-06T01:14:07.764Z,97.91
2023-02-06T01:16:37.726Z,98.03
2023-02-06T01:19:06.985Z,98.05
2023-02-06T01:21:37.207Z,97.95
2023-02-06T01:24:06.999Z,98.02
2023-02-06T01:26:36.408Z,98.03
2023-02-06T01:29:06.073Z,98.05
2023-02-06T01:31:35.974Z,97.95
2023-02-06T01:34:07.647Z,98.08
2023-02-06T01:36:37.789Z,98.21
2023-02-06T01:39:07.965Z,98.20
2023-02-06T01:41:37.283Z,98.15
2023-02-06T01:44:18.382Z,98.19
2023-02-06T01:46:52.479Z,98.38
2023-02-06T01:49:36.711Z,98.52
2023-02-06T01:52:18.489Z,98.53
2023-02-06T01:54:50.162Z,98.61
2023-02-06T01:57:20.416Z,98.56
2023-02-06T01:59:53.464Z,98.48
2023-02-06T02:02:24.288Z,98.64
2023-02-06T02:04:55.768Z,98.64
2023-02-06T02:07:28.763Z,98.62
2023-02-06T02:09:59.127Z,98.57
2023-02-06T02:12:29.696Z,98.65
2023-02-06T02:14:59.489Z,98.58
2023-02-06T02:17:38.065Z,98.73
2023-02-06T02:20:40.696Z,98.79
2023-02-06T02:23:32.068Z,98.74
2023-02-06T02:26:13.087Z,98.72
2023-02-06T02:29:05.966Z,98.92
2023-02-06T02:31:48.069Z,98.98
2023-02-06T02:34:36.725Z,98.98
2023-02-06T02:37:30.405Z,98.97
2023-02-06T02:40:21.864Z,99.17
2023-02-06T02:42:59.913Z,98.87
2023-02-06T02:45:39.468Z,99.15
2023-02-06T02:48:11.930Z,99.33
2023-02-06T02:50:42.134Z,99.46
2023-02-06T02:53:14.934Z,99.48
2023-02-06T02:55:44.385Z,99.45
2023-02-06T02:58:16.453Z,99.49
2023-02-06T03:00:49.455Z,99.64
2023-02-06T03:03:22.265Z,99.75
2023-02-06T03:05:54.824Z,100.00
2023-02-06T03:08:30.361Z,100.00
2023-02-06T03:11:14.126Z,100.00
2023-02-06T03:13:58.474Z,100.00
2023-02-06T03:16:33.651Z,100.00
2023-02-06T03:19:06.352Z,100.00
2023-02-06T03:21:37.156Z,100.00
2023-02-06T03:24:18.848Z,100.00
2023-02-06T03:26:49.810Z,100.00
2023-02-06T03:29:20.422Z,100.00
2023-02-06T03:31:55.166Z,100.00
2023-02-06T03:34:45.156Z,100.00
2023-02-06T03:37:14.655Z,100.00
2023-02-06T03:39:44.661Z,100.00
2023-02-06T03:42:15.558Z,100.00
2023-02-06T03:44:48.157Z,100.00
2023-02-06T03:47:19.157Z,100.00
2023-02-06T03:49:49.322Z,100.00
2023-02-06T03:52:21.888Z,100.00
2023-02-06T03:54:54.545Z,100.00
2023-02-06T03:57:25.073Z,100.00
2023-02-06T03:59:54.549Z,100.00
2023-02-06T04:02:25.846Z,100.00
2023-02-06T04:04:55.414Z,100.00
2023-02-06T04:07:29.559Z,100.00
2023-02-06T04:09:59.453Z,100.00
2023-02-06T04:12:28.759Z,100.00
2023-02-06T04:14:58.020Z,100.00
2023-02-06T04:17:43.151Z,100.00
2023-02-06T04:19:59.170Z,100.00
2023-02-06T04:22:28.412Z,100.00
2023-02-06T04:24:57.834Z,100.00
2023-02-06T04:27:27.226Z,100.00
2023-02-06T04:29:56.879Z,100.00
2023-02-06T04:32:26.480Z,100.00
2023-02-06T04:34:55.701Z,100.00
2023-02-06T04:37:25.005Z,100.00
2023-02-06T04:39:54.577Z,100.00
2023-02-06T04:42:23.799Z,100.00
2023-02-06T04:44:53.138Z,100.00
2023-02-06T04:47:22.371Z,100.00
2023-02-06T04:49:51.624Z,100.00
2023-02-06T04:52:20.842Z,100.00
2023-02-06T04:54:50.274Z,100.00
2023-02-06T04:57:19.764Z,100.00
2023-02-06T04:59:49.243Z,100.00
2023-02-06T05:02:18.520Z,100.00
2023-02-06T05:04:47.788Z,100.00
2023-02-06T05:07:16.995Z,100.00
2023-02-06T05:09:46.597Z,100.00
2023-02-06T05:12:15.864Z,100.00
2023-02-06T05:14:45.100Z,100.00
2023-02-06T05:17:14.404Z,100.00
2023-02-06T05:19:43.927Z,100.00
2023-02-06T05:22:13.312Z,100.00
2023-02-06T05:24:42.557Z,100.00
2023-02-06T05:27:11.891Z,100.00
2023-02-06T05:29:41.838Z,100.00
2023-02-06T05:32:11.594Z,100.00
2023-02-06T05:34:41.262Z,100.00
2023-02-06T05:37:10.829Z,100.00
2023-02-06T05:39:40.411Z,100.00
2023-02-06T05:42:10.082Z,100.00
2023-02-06T05:44:39.789Z,100.00
2023-02-06T05:47:09.091Z,100.00
2023-02-06T05:49:38.334Z,100.00
2023-02-06T05:52:07.684Z,100.00
2023-02-06T05:54:37.330Z,100.00
2023-02-06T05:57:06.906Z,100.00
2023-02-06T05:59:36.413Z,100.00
2023-02-06T06:02:05.953Z,100.00
2023-02-06T06:04:35.281Z,100.00
2023-02-06T06:07:04.877Z,100.00
2023-02-06T06:09:34.100Z,100.00
2023-02-06T06:12:03.335Z,100.00
2023-02-06T06:14:32.704Z,100.00
2023-02-06T06:17:02.298Z,100.00
2023-02-06T06:19:31.598Z,100.00
2023-02-06T06:22:01.040Z,100.00
2023-02-06T06:24:30.297Z,100.00
2023-02-06T06:27:00.111Z,100.00
2023-02-06T06:29:29.634Z,100.00
2023-02-06T06:31:59.307Z,100.00
2023-02-06T06:34:28.728Z,100.00
2023-02-06T06:36:58.007Z,100.00
2023-02-06T06:39:27.299Z,100.00
2023-02-06T06:41:56.638Z,100.00
2023-02-06T06:44:26.268Z,100.00
2023-02-06T06:46:55.755Z,100.00
2023-02-06T06:49:25.248Z,100.00
2023-02-06T06:51:54.541Z,100.00
2023-02-06T06:54:24.492Z,100.00
2023-02-06T06:56:54.165Z,100.00
2023-02-06T06:59:23.399Z,100.00
2023-02-06T07:01:52.654Z,100.00
2023-02-06T07:04:23.041Z,100.00
2023-02-06T07:06:52.289Z,100.00
2023-02-06T07:09:21.593Z,100.00
2023-02-06T07:11:50.894Z,100.00
2023-02-06T07:14:20.368Z,100.00
2023-02-06T07:16:49.906Z,100.00
2023-02-06T07:19:19.555Z,100.00
2023-02-06T07:21:49.143Z,100.00
2023-02-06T07:24:18.451Z,100.00
2023-02-06T07:26:47.683Z,100.00
2023-02-06T07:29:17.271Z,100.00
2023-02-06T07:31:46.889Z,100.00
2023-02-06T07:34:17.086Z,100.00
2023-02-06T07:36:46.540Z,100.00
2023-02-06T07:39:15.805Z,100.00
2023-02-06T07:41:46.590Z,100.00
2023-02-06T07:44:16.610Z,100.00
2023-02-06T07:46:45.908Z,100.00
2023-02-06T07:49:16.469Z,100.00
2023-02-06T07:51:46.950Z,100.00
2023-02-06T07:54:16.790Z,100.00
2023-02-06T07:56:46.557Z,100.00
2023-02-06T07:59:15.838Z,100.00
2023-02-06T08:01:45.508Z,100.00
2023-02-06T08:04:14.794Z,100.00
2023-02-06T08:06:44.885Z,100.00
2023-02-06T08:09:17.784Z,100.00
2023-02-06T08:11:49.176Z,100.00
2023-02-06T08:14:18.979Z,100.00
2023-02-06T08:16:49.956Z,100.00
2023-02-06T08:19:19.660Z,100.00
2023-02-06T08:21:49.213Z,100.00
2023-02-06T08:24:18.602Z,100.00
2023-02-06T08:26:48.381Z,100.00
2023-02-06T08:29:17.776Z,100.00
2023-02-06T08:31:47.227Z,100.00
2023-02-06T08:34:17.115Z,100.00
2023-02-06T08:36:47.052Z,100.00
2023-02-06T08:39:18.150Z,100.00
2023-02-06T08:41:47.679Z,100.00
2023-02-06T08:44:18.536Z,100.00
2023-02-06T08:46:52.310Z,100.00
2023-02-06T08:49:21.636Z,100.00
2023-02-06T08:51:50.988Z,100.00
2023-02-06T08:54:23.327Z,100.00
2023-02-06T08:56:53.459Z,100.00
2023-02-06T08:59:22.881Z,100.00
2023-02-06T09:01:52.355Z,100.00
2023-02-06T09:04:21.992Z,100.00
2023-02-06T09:06:52.386Z,100.00
2023-02-06T09:09:21.684Z,100.00
2023-02-06T09:11:51.117Z,100.00
2023-02-06T09:14:20.905Z,100.00
2023-02-06T09:16:50.230Z,100.00
2023-02-06T09:19:19.665Z,100.00
2023-02-06T09:21:48.867Z,100.00
2023-02-06T09:24:18.242Z,99.72
2023-02-06T09:26:59.521Z,99.68
2023-02-06T09:29:18.653Z,98.92
2023-02-06T09:31:47.955Z,99.43
2023-02-06T09:34:17.844Z,98.70
2023-02-06T09:36:47.178Z,98.12
2023-02-06T09:39:16.464Z,96.32
2023-02-06T09:41:57.750Z,98.67
2023-02-06T09:44:30.178Z,97.41
2023-02-06T09:47:28.086Z,90.99
2023-02-06T09:50:07.388Z,89.01
2023-02-06T09:53:04.322Z,89.23
2023-02-06T09:55:49.073Z,92.58
2023-02-06T09:58:47.509Z,90.26
2023-02-06T10:01:25.897Z,87.99
2023-02-06T10:04:14.386Z,89.87
2023-02-06T10:06:49.417Z,85.21
2023-02-06T10:09:30.970Z,89.52
2023-02-06T10:12:06.425Z,85.25
2023-02-06T10:14:49.956Z,86.11
2023-02-06T10:17:31.911Z,86.14
2023-02-06T10:20:07.286Z,85.39
2023-02-06T10:23:00.594Z,86.50
2023-02-06T10:25:35.723Z,86.00
2023-02-06T10:28:15.273Z,85.07
2023-02-06T10:30:57.327Z,85.21
2023-02-06T10:33:41.522Z,84.66
2023-02-06T10:36:29.562Z,84.15
2023-02-06T10:39:07.906Z,82.75
2023-02-06T10:42:06.354Z,80.62
2023-02-06T10:44:51.712Z,80.87
2023-02-06T10:47:24.463Z,79.58
2023-02-06T10:50:01.256Z,76.87
2023-02-06T10:52:34.263Z,77.11
2023-02-06T10:55:06.637Z,76.09
2023-02-06T10:57:36.295Z,74.21
2023-02-06T11:00:08.099Z,67.92
2023-02-06T11:02:43.859Z,64.74
2023-02-06T11:05:19.382Z,63.10
2023-02-06T11:07:51.358Z,59.01
2023-02-06T11:10:23.599Z,63.42
2023-02-06T11:13:12.597Z,65.05
2023-02-06T11:15:57.465Z,67.80
2023-02-06T11:18:33.045Z,68.53
2023-02-06T11:21:03.565Z,70.37
2023-02-06T11:23:35.349Z,70.71
2023-02-06T11:26:19.129Z,66.20
2023-02-06T11:28:53.883Z,63.25
2023-02-06T11:31:46.114Z,59.70
2023-02-06T11:34:24.349Z,59.21
2023-02-06T11:37:05.723Z,58.33
2023-02-06T11:39:40.056Z,59.36
2023-02-06T11:42:21.409Z,57.27
2023-02-06T11:44:52.339Z,57.32
2023-02-06T11:47:37.923Z,54.17
2023-02-06T11:50:34.886Z,55.02
2023-02-06T11:53:18.860Z,56.95
2023-02-06T11:55:51.511Z,62.07
2023-02-06T11:58:28.554Z,63.86
2023-02-06T12:01:06.652Z,61.66
2023-02-06T12:03:41.737Z,59.38
2023-02-06T12:06:30.780Z,60.67
2023-02-06T12:09:05.803Z,63.38
2023-02-06T12:11:38.240Z,64.05
2023-02-06T12:14:20.064Z,60.02
2023-02-06T12:16:50.673Z,57.23
2023-02-06T12:19:26.211Z,57.38
2023-02-06T12:21:59.099Z,55.24
2023-02-06T12:24:40.212Z,57.65
2023-02-06T12:27:39.622Z,56.55
2023-02-06T12:30:47.192Z,58.13
2023-02-06T12:33:26.652Z,58.20
2023-02-06T12:36:09.735Z,62.06
2023-02-06T12:38:41.953Z,61.33
2023-02-06T12:41:22.713Z,63.86
2023-02-06T12:43:55.359Z,61.84
2023-02-06T12:46:24.928Z,64.05
2023-02-06T12:48:57.207Z,65.58
2023-02-06T12:51:32.836Z,67.28
2023-02-06T12:54:17.209Z,68.07
2023-02-06T12:56:55.650Z,68.43
2023-02-06T12:59:41.686Z,65.75
2023-02-06T13:02:20.952Z,65.77
2023-02-06T13:04:50.772Z,67.30
2023-02-06T13:07:22.602Z,66.02
2023-02-06T13:09:54.510Z,66.84
2023-02-06T13:12:26.625Z,66.73
2023-02-06T13:14:58.513Z,68.34
2023-02-06T13:17:41.848Z,68.39
2023-02-06T13:20:16.063Z,69.80
2023-02-06T13:22:53.853Z,70.67
2023-02-06T13:25:36.515Z,70.16
2023-02-06T13:28:25.987Z,70.76
2023-02-06T13:31:07.813Z,71.02
2023-02-06T13:33:45.633Z,71.39
2023-02-06T13:36:21.425Z,71.20
2023-02-06T13:38:56.026Z,70.70
2023-02-06T13:41:31.248Z,70.81
2023-02-06T13:44:05.271Z,71.34
2023-02-06T13:46:53.241Z,70.31
2023-02-06T13:49:31.454Z,70.10
2023-02-06T13:52:13.010Z,68.60
2023-02-06T13:54:50.921Z,69.85
2023-02-06T13:57:58.371Z,70.52
2023-02-06T14:00:30.293Z,70.31
2023-02-06T14:03:08.955Z,70.22
2023-02-06T14:05:47.749Z,69.04
2023-02-06T14:08:25.999Z,70.02
2023-02-06T14:11:13.832Z,70.40
2023-02-06T14:14:14.759Z,69.40
2023-02-06T14:16:53.168Z,68.43
2023-02-06T14:19:28.463Z,69.26
2023-02-06T14:22:01.028Z,69.38
2023-02-06T14:24:44.392Z,69.92
2023-02-06T14:27:14.903Z,70.30
2023-02-06T14:29:47.448Z,71.02
2023-02-06T14:32:20.602Z,70.26
2023-02-06T14:34:59.842Z,70.55
2023-02-06T14:37:57.601Z,69.70
2023-02-06T14:40:28.953Z,70.08
2023-02-06T14:42:59.747Z,70.07
2023-02-06T14:45:40.940Z,69.65
2023-02-06T14:48:05.242Z,68.05
2023-02-06T14:50:37.623Z,67.54
2023-02-06T14:53:24.817Z,68.14
2023-02-06T14:55:55.030Z,67.74
2023-02-06T14:58:31.896Z,68.89
2023-02-06T15:01:19.194Z,68.10
2023-02-06T15:03:51.864Z,68.62
2023-02-06T15:06:30.512Z,69.36
2023-02-06T15:09:00.502Z,68.05
2023-02-06T15:11:32.842Z,67.81
2023-02-06T15:14:03.492Z,68.75
2023-02-06T15:16:34.320Z,67.96
2023-02-06T15:19:15.971Z,67.85
2023-02-06T15:21:45.244Z,67.97
2023-02-06T15:24:34.503Z,68.23
2023-02-06T15:27:06.872Z,67.59
2023-02-06T15:29:36.220Z,69.24
2023-02-06T15:32:08.248Z,69.22
2023-02-06T15:34:37.883Z,68.85
2023-02-06T15:37:30.556Z,69.40
2023-02-06T15:40:08.867Z,69.48
2023-02-06T15:42:38.466Z,69.17
2023-02-06T15:45:09.132Z,68.96
2023-02-06T15:47:40.458Z,70.14
2023-02-06T15:50:15.872Z,70.50
2023-02-06T15:52:47.030Z,70.58
2023-02-06T15:55:28.544Z,70.54
2023-02-06T15:57:59.432Z,70.83
2023-02-06T16:00:30.954Z,71.49
2023-02-06T16:03:02.882Z,71.14
2023-02-06T16:05:40.712Z,71.58
2023-02-06T16:08:30.294Z,71.20
2023-02-06T16:11:05.421Z,72.60
2023-02-06T16:13:35.227Z,72.02
2023-02-06T16:16:13.991Z,72.61
2023-02-06T16:18:43.266Z,73.51
2023-02-06T16:21:18.444Z,73.66
2023-02-06T16:23:49.932Z,74.25
2023-02-06T16:26:24.486Z,74.57
2023-02-06T16:29:06.317Z,74.63
2023-02-06T16:31:38.925Z,75.10
2023-02-06T16:34:37.159Z,74.85
2023-02-06T16:37:10.619Z,75.75
2023-02-06T16:39:42.397Z,75.71
2023-02-06T16:42:15.027Z,76.30
2023-02-06T16:44:47.284Z,76.42
2023-02-06T16:47:18.696Z,76.14
2023-02-06T16:49:48.857Z,77.21
2023-02-06T16:52:27.238Z,77.20
2023-02-06T16:55:01.143Z,77.31
2023-02-06T16:57:36.716Z,77.35
2023-02-06T17:00:15.115Z,77.99
2023-02-06T17:02:45.096Z,77.94
2023-02-06T17:05:15.368Z,77.64
2023-02-06T17:07:45.286Z,77.86
2023-02-06T17:10:15.307Z,78.31
2023-02-06T17:12:46.982Z,79.11
2023-02-06T17:15:17.865Z,78.91
2023-02-06T17:17:47.560Z,79.62
2023-02-06T17:20:31.868Z,80.20
2023-02-06T17:23:01.454Z,80.27
2023-02-06T17:25:30.769Z,80.05
2023-02-06T17:28:01.183Z,80.03
2023-02-06T17:30:30.860Z,80.03
2023-02-06T17:33:00.195Z,80.22
2023-02-06T17:35:30.656Z,80.89
2023-02-06T17:38:00.726Z,81.18
2023-02-06T17:40:31.966Z,80.16
2023-02-06T17:43:03.946Z,79.23
2023-02-06T17:45:33.967Z,79.13
2023-02-06T17:48:03.439Z,81.51
2023-02-06T17:50:33.274Z,82.05
2023-02-06T17:53:03.925Z,81.44
2023-02-06T17:55:33.691Z,81.33
2023-02-06T17:58:03.343Z,80.93
2023-02-06T18:00:33.067Z,80.19
2023-02-06T18:03:04.684Z,81.03
2023-02-06T18:05:35.025Z,81.59
2023-02-06T18:08:04.550Z,81.92
2023-02-06T18:10:33.826Z,82.47
2023-02-06T18:13:03.606Z,83.07
2023-02-06T18:15:33.173Z,83.29
2023-02-06T18:18:04.457Z,83.48
2023-02-06T18:20:33.852Z,83.29
2023-02-06T18:23:03.396Z,82.96
2023-02-06T18:25:32.718Z,83.16
2023-02-06T18:28:02.249Z,83.62
2023-02-06T18:30:31.571Z,84.21
2023-02-06T18:33:01.108Z,85.11
2023-02-06T18:35:30.769Z,86.29
2023-02-06T18:38:00.353Z,86.19
2023-02-06T18:40:30.117Z,87.24
2023-02-06T18:42:59.445Z,87.46
2023-02-06T18:45:33.046Z,87.68
2023-02-06T18:48:03.895Z,87.99
2023-02-06T18:50:34.020Z,88.25
2023-02-06T18:53:03.340Z,88.85
2023-02-06T18:55:34.773Z,88.40
2023-02-06T18:58:05.024Z,89.73
2023-02-06T19:00:37.449Z,89.46
2023-02-06T19:03:07.508Z,89.89
2023-02-06T19:05:37.984Z,90.39
2023-02-06T19:08:07.478Z,92.66
2023-02-06T19:10:37.354Z,91.37
2023-02-06T19:13:09.071Z,91.77
2023-02-06T19:15:38.470Z,92.23
2023-02-06T19:18:08.939Z,92.43
2023-02-06T19:20:39.860Z,92.84
2023-02-06T19:23:09.543Z,92.05
2023-02-06T19:25:41.420Z,92.39
2023-02-06T19:28:11.212Z,92.71
2023-02-06T19:30:41.154Z,94.03
2023-02-06T19:33:12.096Z,94.14
2023-02-06T19:35:42.264Z,94.39
2023-02-06T19:38:11.891Z,93.83
2023-02-06T19:40:41.136Z,93.69
2023-02-06T19:43:10.695Z,94.20
2023-02-06T19:45:40.015Z,94.23
2023-02-06T19:48:12.130Z,94.81
2023-02-06T19:50:42.484Z,94.25
2023-02-06T19:53:15.567Z,93.95
2023-02-06T19:55:46.554Z,94.02
2023-02-06T19:58:15.126Z,94.45
2023-02-06T20:00:44.424Z,94.50
2023-02-06T20:03:14.407Z,94.39
2023-02-06T20:05:44.446Z,95.02
2023-02-06T20:08:14.011Z,94.79
2023-02-06T20:10:43.266Z,95.53
2023-02-06T20:13:12.832Z,95.72
2023-02-06T20:15:42.147Z,95.73
2023-02-06T20:18:12.597Z,95.79
2023-02-06T20:20:42.022Z,95.81
2023-02-06T20:23:11.474Z,95.83
2023-02-06T20:25:40.837Z,95.68
2023-02-06T20:28:10.187Z,95.86
2023-02-06T20:30:39.985Z,95.60
2023-02-06T20:33:10.051Z,95.70
2023-02-06T20:35:45.794Z,95.72
2023-02-06T20:38:15.297Z,95.67
2023-02-06T20:40:48.206Z,95.69
2023-02-06T20:43:17.701Z,96.48
2023-02-06T20:45:47.245Z,96.78
2023-02-06T20:48:16.609Z,97.09
2023-02-06T20:50:45.915Z,96.78
2023-02-06T20:53:15.291Z,96.65
2023-02-06T20:55:47.579Z,97.14
2023-02-06T20:58:16.816Z,97.48
2023-02-06T21:00:46.423Z,97.49
2023-02-06T21:03:15.646Z,97.27
2023-02-06T21:05:45.807Z,97.22
2023-02-06T21:08:15.073Z,97.44
2023-02-06T21:10:44.570Z,97.53
2023-02-06T21:13:13.806Z,97.82
2023-02-06T21:15:43.485Z,97.54
2023-02-06T21:18:12.809Z,97.67
2023-02-06T21:20:42.262Z,97.73
2023-02-06T21:23:11.645Z,97.72
2023-02-06T21:25:42.966Z,97.70
2023-02-06T21:28:12.320Z,97.56
2023-02-06T21:30:41.978Z,97.87
2023-02-06T21:33:11.375Z,97.98
2023-02-06T21:35:40.916Z,98.23
2023-02-06T21:38:10.400Z,98.19
2023-02-06T21:40:39.831Z,98.09
2023-02-06T21:43:09.392Z,98.12
2023-02-06T21:45:42.024Z,97.74
2023-02-06T21:48:11.963Z,97.72
2023-02-06T21:50:42.541Z,97.81
2023-02-06T21:53:12.031Z,97.99
2023-02-06T21:55:45.219Z,98.13
2023-02-06T21:58:15.132Z,97.99
2023-02-06T22:00:46.226Z,97.73
2023-02-06T22:03:15.980Z,97.83
2023-02-06T22:05:46.460Z,98.08
2023-02-06T22:08:19.184Z,97.97
2023-02-06T22:10:49.185Z,97.77
2023-02-06T22:13:19.330Z,97.56
2023-02-06T22:16:13.071Z,98.03
2023-02-06T22:18:48.495Z,98.08
2023-02-06T22:21:18.622Z,98.32
2023-02-06T22:23:49.338Z,98.49
2023-02-06T22:26:21.301Z,98.33
2023-02-06T22:28:51.741Z,98.38
2023-02-06T22:31:23.668Z,98.31
2023-02-06T22:34:00.378Z,98.70
2023-02-06T22:36:32.780Z,98.62
2023-02-06T22:39:06.647Z,98.52
2023-02-06T22:41:44.342Z,98.50
2023-02-06T22:44:15.849Z,98.60
2023-02-06T22:46:47.545Z,98.54
2023-02-06T22:49:17.718Z,98.92
2023-02-06T22:51:47.393Z,99.18
2023-02-06T22:54:16.991Z,99.09
2023-02-06T22:56:46.289Z,98.94
2023-02-06T22:59:26.325Z,99.01
2023-02-06T23:01:59.134Z,99.06
2023-02-06T23:04:33.011Z,99.27
2023-02-06T23:07:02.590Z,99.26
2023-02-06T23:09:34.654Z,99.32
2023-02-06T23:12:05.120Z,99.30
2023-02-06T23:14:35.484Z,99.33
2023-02-06T23:17:04.894Z,99.17
2023-02-06T23:19:34.733Z,99.25
2023-02-06T23:22:03.995Z,99.66
2023-02-06T23:24:33.297Z,99.76
2023-02-06T23:27:02.630Z,99.74
2023-02-06T23:29:31.908Z,99.69
2023-02-06T23:32:01.320Z,99.70
2023-02-06T23:34:30.612Z,99.70
2023-02-06T23:36:59.911Z,100.00
2023-02-06T23:39:29.154Z,100.00
2023-02-06T23:41:58.609Z,100.00
2023-02-06T23:44:27.930Z,100.00
2023-02-06T23:46:57.342Z,100.00
2023-02-06T23:49:26.565Z,100.00
2023-02-06T23:51:55.799Z,100.00
2023-02-06T23:54:25.046Z,100.00
2023-02-06T23:56:54.477Z,100.00
2023-02-06T23:59:23.732Z,100.00
